sensor_id;sensor_type;location;lat;lon;timestamp;pressure;altitude;pressure_sealevel;temperature;humidity
5872;BME280;2962;51.312;7.378;2022-12-20T00:02:04;97470.00;;;7.51;100.00
5872;BME280;2962;51.312;7.378;2022-12-20T00:04:29;97479.47;;;7.57;100.00
5872;BME280;2962;51.312;7.378;2022-12-20T00:06:55;97461.44;;;7.65;100.00
5872;BME280;2962;51.312;7.378;2022-12-20T00:09:20;97445.69;;;7.71;100.00
5872;BME280;2962;51.312;7.378;2022-12-20T00:11:46;97429.06;;;7.72;100.00
5872;BME280;2962;51.312;7.378;2022-12-20T00:14:11;97439.50;;;7.70;100.00
5872;BME280;2962;51.312;7.378;2022-12-20T00:16:37;97424.38;;;7.69;100.00
5872;BME280;2962;51.312;7.378;2022-12-20T00:19:04;97424.69;;;7.83;100.00
5872;BME280;2962;51.312;7.378;2022-12-20T00:21:31;97435.63;;;7.87;100.00
5872;BME280;2962;51.312;7.378;2022-12-20T00:23:58;97399.75;;;7.94;100.00
5872;BME280;2962;51.312;7.378;2022-12-20T00:26:26;97433.19;;;7.98;100.00
5872;BME280;2962;51.312;7.378;2022-12-20T00:28:52;97411.56;;;8.01;100.00
5872;BME280;2962;51.312;7.378;2022-12-20T00:31:18;97379.72;;;7.98;100.00
5872;BME280;2962;51.312;7.378;2022-12-20T00:33:46;97384.53;;;8.05;100.00
5872;BME280;2962;51.312;7.378;2022-12-20T00:36:12;97401.16;;;8.03;100.00
5872;BME280;2962;51.312;7.378;2022-12-20T00:38:37;97401.50;;;8.02;100.00
5872;BME280;2962;51.312;7.378;2022-12-20T00:41:12;97397.41;;;7.92;100.00
5872;BME280;2962;51.312;7.378;2022-12-20T00:43:39;97381.84;;;7.89;100.00
5872;BME280;2962;51.312;7.378;2022-12-20T00:46:05;97389.41;;;7.99;100.00
5872;BME280;2962;51.312;7.378;2022-12-20T00:48:32;97391.25;;;7.95;100.00
5872;BME280;2962;51.312;7.378;2022-12-20T00:51:03;97384.34;;;7.98;100.00
5872;BME280;2962;51.312;7.378;2022-12-20T00:53:29;97392.06;;;7.96;100.00
5872;BME280;2962;51.312;7.378;2022-12-20T00:55:54;97369.31;;;8.00;100.00
5872;BME280;2962;51.312;7.378;2022-12-20T00:58:20;97382.09;;;8.00;100.00
5872;BME280;2962;51.312;7.378;2022-12-20T01:00:47;97387.31;;;8.08;100.00
5872;BME280;2962;51.312;7.378;2022-12-20T01:03:13;97395.78;;;8.07;100.00
5872;BME280;2962;51.312;7.378;2022-12-20T01:05:38;97370.09;;;8.01;100.00
5872;BME280;2962;51.312;7.378;2022-12-20T01:08:04;97373.09;;;7.96;100.00
5872;BME280;2962;51.312;7.378;2022-12-20T01:10:30;97385.91;;;7.99;100.00
5872;BME280;2962;51.312;7.378;2022-12-20T01:12:55;97391.34;;;7.99;100.00
5872;BME280;2962;51.312;7.378;2022-12-20T01:15:21;97403.69;;;7.96;100.00
5872;BME280;2962;51.312;7.378;2022-12-20T01:17:46;97424.16;;;8.10;100.00
5872;BME280;2962;51.312;7.378;2022-12-20T01:20:12;97423.28;;;8.05;100.00
5872;BME280;2962;51.312;7.378;2022-12-20T01:22:37;97424.69;;;7.99;100.00
5872;BME280;2962;51.312;7.378;2022-12-20T01:25:03;97437.22;;;8.04;100.00
5872;BME280;2962;51.312;7.378;2022-12-20T01:27:29;97426.97;;;7.97;100.00
5872;BME280;2962;51.312;7.378;2022-12-20T01:29:54;97429.25;;;7.95;100.00
5872;BME280;2962;51.312;7.378;2022-12-20T01:32:19;97428.47;;;7.95;100.00
5872;BME280;2962;51.312;7.378;2022-12-20T01:34:45;97415.06;;;7.86;100.00
5872;BME280;2962;51.312;7.378;2022-12-20T01:37:10;97416.03;;;7.78;100.00
5872;BME280;2962;51.312;7.378;2022-12-20T01:39:36;97412.97;;;7.79;100.00
5872;BME280;2962;51.312;7.378;2022-12-20T01:42:01;97416.22;;;7.85;100.00
5872;BME280;2962;51.312;7.378;2022-12-20T01:46:52;97405.56;;;7.76;100.00
5872;BME280;2962;51.312;7.378;2022-12-20T01:49:41;97404.50;;;7.65;100.00
5872;BME280;2962;51.312;7.378;2022-12-20T01:52:15;97417.19;;;7.61;100.00
5872;BME280;2962;51.312;7.378;2022-12-20T01:54:53;97399.97;;;7.53;100.00
5872;BME280;2962;51.312;7.378;2022-12-20T01:57:23;97404.94;;;7.51;100.00
5872;BME280;2962;51.312;7.378;2022-12-20T01:59:50;97405.28;;;7.50;100.00
5872;BME280;2962;51.312;7.378;2022-12-20T02:02:16;97407.13;;;7.46;100.00
5872;BME280;2962;51.312;7.378;2022-12-20T02:04:42;97393.56;;;7.46;100.00
5872;BME280;2962;51.312;7.378;2022-12-20T02:07:10;97393.22;;;7.47;100.00
5872;BME280;2962;51.312;7.378;2022-12-20T02:09:38;97390.50;;;7.47;100.00
5872;BME280;2962;51.312;7.378;2022-12-20T02:12:20;97385.84;;;7.48;100.00
5872;BME280;2962;51.312;7.378;2022-12-20T02:26:47;97378.00;;;7.43;100.00
5872;BME280;2962;51.312;7.378;2022-12-20T02:29:19;97374.84;;;7.41;100.00
5872;BME280;2962;51.312;7.378;2022-12-20T02:32:01;97338.13;;;7.27;100.00
5872;BME280;2962;51.312;7.378;2022-12-20T02:34:30;97342.41;;;7.28;100.00
5872;BME280;2962;51.312;7.378;2022-12-20T02:36:57;97332.94;;;7.22;100.00
5872;BME280;2962;51.312;7.378;2022-12-20T02:39:23;97333.56;;;7.16;100.00
5872;BME280;2962;51.312;7.378;2022-12-20T02:41:56;97349.63;;;7.08;100.00
5872;BME280;2962;51.312;7.378;2022-12-20T02:44:25;97354.59;;;7.06;100.00
5872;BME280;2962;51.312;7.378;2022-12-20T02:47:28;97344.13;;;7.05;100.00
5872;BME280;2962;51.312;7.378;2022-12-20T02:49:55;97340.03;;;7.11;100.00
5872;BME280;2962;51.312;7.378;2022-12-20T02:52:22;97341.59;;;7.12;100.00
5872;BME280;2962;51.312;7.378;2022-12-20T02:54:54;97342.81;;;7.15;100.00
5872;BME280;2962;51.312;7.378;2022-12-20T02:57:32;97330.16;;;7.19;100.00
5872;BME280;2962;51.312;7.378;2022-12-20T03:00:07;97325.06;;;7.17;100.00
5872;BME280;2962;51.312;7.378;2022-12-20T03:02:34;97335.03;;;7.13;100.00
5872;BME280;2962;51.312;7.378;2022-12-20T03:05:19;97326.22;;;7.16;100.00
5872;BME280;2962;51.312;7.378;2022-12-20T03:07:45;97321.94;;;7.15;100.00
5872;BME280;2962;51.312;7.378;2022-12-20T03:10:10;97308.81;;;7.17;100.00
5872;BME280;2962;51.312;7.378;2022-12-20T03:12:36;97303.22;;;7.26;100.00
5872;BME280;2962;51.312;7.378;2022-12-20T03:15:01;97320.53;;;7.21;100.00
5872;BME280;2962;51.312;7.378;2022-12-20T03:17:26;97331.09;;;7.26;100.00
5872;BME280;2962;51.312;7.378;2022-12-20T03:19:52;97346.25;;;7.27;100.00
5872;BME280;2962;51.312;7.378;2022-12-20T03:22:17;97332.06;;;7.18;100.00
5872;BME280;2962;51.312;7.378;2022-12-20T03:24:42;97353.94;;;7.25;100.00
5872;BME280;2962;51.312;7.378;2022-12-20T03:27:07;97389.16;;;7.25;100.00
5872;BME280;2962;51.312;7.378;2022-12-20T03:29:33;97357.94;;;7.16;100.00
5872;BME280;2962;51.312;7.378;2022-12-20T03:31:58;97351.38;;;7.17;100.00
5872;BME280;2962;51.312;7.378;2022-12-20T03:34:23;97356.53;;;7.22;100.00
5872;BME280;2962;51.312;7.378;2022-12-20T03:36:48;97353.84;;;7.22;100.00
5872;BME280;2962;51.312;7.378;2022-12-20T03:39:14;97351.22;;;7.25;100.00
5872;BME280;2962;51.312;7.378;2022-12-20T03:41:39;97358.19;;;7.26;100.00
5872;BME280;2962;51.312;7.378;2022-12-20T03:44:04;97365.81;;;7.21;100.00
5872;BME280;2962;51.312;7.378;2022-12-20T03:46:30;97359.34;;;7.25;100.00
5872;BME280;2962;51.312;7.378;2022-12-20T03:48:55;97355.25;;;7.31;100.00
5872;BME280;2962;51.312;7.378;2022-12-20T03:51:20;97355.50;;;7.26;100.00
5872;BME280;2962;51.312;7.378;2022-12-20T03:53:46;97355.78;;;7.37;100.00
5872;BME280;2962;51.312;7.378;2022-12-20T03:56:11;97343.00;;;7.22;100.00
5872;BME280;2962;51.312;7.378;2022-12-20T03:58:36;97338.03;;;7.24;100.00
5872;BME280;2962;51.312;7.378;2022-12-20T04:01:01;97319.16;;;7.27;100.00
5872;BME280;2962;51.312;7.378;2022-12-20T04:03:27;97325.16;;;7.21;100.00
5872;BME280;2962;51.312;7.378;2022-12-20T04:05:52;97334.34;;;7.16;100.00
5872;BME280;2962;51.312;7.378;2022-12-20T04:08:17;97330.84;;;7.00;100.00
5872;BME280;2962;51.312;7.378;2022-12-20T04:10:42;97338.00;;;7.08;100.00
5872;BME280;2962;51.312;7.378;2022-12-20T04:13:26;97325.06;;;7.01;100.00
5872;BME280;2962;51.312;7.378;2022-12-20T04:15:51;97338.88;;;6.96;100.00
5872;BME280;2962;51.312;7.378;2022-12-20T04:18:17;97335.38;;;6.96;100.00
5872;BME280;2962;51.312;7.378;2022-12-20T04:20:44;97321.75;;;6.92;100.00
5872;BME280;2962;51.312;7.378;2022-12-20T04:23:09;97340.06;;;6.83;100.00
5872;BME280;2962;51.312;7.378;2022-12-20T04:25:34;97355.63;;;6.86;100.00
5872;BME280;2962;51.312;7.378;2022-12-20T04:27:59;97343.22;;;6.85;100.00
5872;BME280;2962;51.312;7.378;2022-12-20T04:30:25;97324.50;;;6.80;100.00
5872;BME280;2962;51.312;7.378;2022-12-20T04:32:50;97324.59;;;6.83;100.00
5872;BME280;2962;51.312;7.378;2022-12-20T04:35:18;97341.03;;;6.91;100.00
5872;BME280;2962;51.312;7.378;2022-12-20T04:37:44;97350.19;;;6.86;100.00
5872;BME280;2962;51.312;7.378;2022-12-20T04:40:09;97334.72;;;6.87;100.00
5872;BME280;2962;51.312;7.378;2022-12-20T04:42:35;97343.91;;;6.82;100.00
5872;BME280;2962;51.312;7.378;2022-12-20T04:45:00;97345.28;;;6.76;100.00
5872;BME280;2962;51.312;7.378;2022-12-20T04:47:25;97350.34;;;6.77;100.00
5872;BME280;2962;51.312;7.378;2022-12-20T04:49:50;97316.53;;;6.71;100.00
5872;BME280;2962;51.312;7.378;2022-12-20T04:52:16;97335.56;;;6.75;100.00
5872;BME280;2962;51.312;7.378;2022-12-20T04:55:00;97334.09;;;6.77;100.00
5872;BME280;2962;51.312;7.378;2022-12-20T04:57:25;97337.84;;;6.73;100.00
5872;BME280;2962;51.312;7.378;2022-12-20T04:59:51;97334.91;;;6.78;100.00
5872;BME280;2962;51.312;7.378;2022-12-20T05:02:16;97350.59;;;6.72;100.00
5872;BME280;2962;51.312;7.378;2022-12-20T05:04:42;97326.22;;;6.72;100.00
5872;BME280;2962;51.312;7.378;2022-12-20T05:07:07;97320.72;;;6.69;100.00
5872;BME280;2962;51.312;7.378;2022-12-20T05:09:32;97322.41;;;6.73;100.00
5872;BME280;2962;51.312;7.378;2022-12-20T05:11:57;97340.47;;;6.69;100.00
5872;BME280;2962;51.312;7.378;2022-12-20T05:14:23;97325.53;;;6.75;100.00
5872;BME280;2962;51.312;7.378;2022-12-20T05:16:48;97330.84;;;6.72;100.00
5872;BME280;2962;51.312;7.378;2022-12-20T05:19:13;97312.00;;;6.75;100.00
5872;BME280;2962;51.312;7.378;2022-12-20T05:21:39;97333.31;;;6.77;100.00
5872;BME280;2962;51.312;7.378;2022-12-20T05:24:22;97330.53;;;6.73;100.00
5872;BME280;2962;51.312;7.378;2022-12-20T05:27:06;97309.28;;;6.75;100.00
5872;BME280;2962;51.312;7.378;2022-12-20T05:29:31;97311.56;;;6.73;100.00
5872;BME280;2962;51.312;7.378;2022-12-20T05:31:57;97308.88;;;6.73;100.00
5872;BME280;2962;51.312;7.378;2022-12-20T05:34:22;97322.81;;;6.75;100.00
5872;BME280;2962;51.312;7.378;2022-12-20T05:36:47;97310.94;;;6.80;100.00
5872;BME280;2962;51.312;7.378;2022-12-20T05:39:12;97298.66;;;6.82;100.00
5872;BME280;2962;51.312;7.378;2022-12-20T05:41:38;97292.88;;;6.84;100.00
5872;BME280;2962;51.312;7.378;2022-12-20T05:44:05;97277.44;;;6.84;100.00
5872;BME280;2962;51.312;7.378;2022-12-20T05:46:30;97294.78;;;6.83;100.00
5872;BME280;2962;51.312;7.378;2022-12-20T05:48:55;97288.97;;;6.81;100.00
5872;BME280;2962;51.312;7.378;2022-12-20T05:51:21;97268.44;;;6.80;100.00
5872;BME280;2962;51.312;7.378;2022-12-20T05:53:46;97280.47;;;6.83;100.00
5872;BME280;2962;51.312;7.378;2022-12-20T05:56:11;97272.81;;;6.85;100.00
5872;BME280;2962;51.312;7.378;2022-12-20T05:58:37;97279.34;;;6.84;100.00
5872;BME280;2962;51.312;7.378;2022-12-20T06:01:04;97279.69;;;6.82;100.00
5872;BME280;2962;51.312;7.378;2022-12-20T06:03:30;97281.97;;;6.80;100.00
5872;BME280;2962;51.312;7.378;2022-12-20T06:05:56;97268.88;;;6.82;100.00
5872;BME280;2962;51.312;7.378;2022-12-20T06:08:21;97279.44;;;6.88;100.00
5872;BME280;2962;51.312;7.378;2022-12-20T06:10:47;97270.34;;;6.80;100.00
5872;BME280;2962;51.312;7.378;2022-12-20T06:13:13;97264.59;;;6.81;100.00
5872;BME280;2962;51.312;7.378;2022-12-20T06:15:38;97263.19;;;6.88;100.00
5872;BME280;2962;51.312;7.378;2022-12-20T06:18:05;97279.09;;;6.89;100.00
5872;BME280;2962;51.312;7.378;2022-12-20T06:20:31;97280.41;;;6.95;100.00
5872;BME280;2962;51.312;7.378;2022-12-20T06:22:57;97241.69;;;6.95;100.00
5872;BME280;2962;51.312;7.378;2022-12-20T06:25:24;97271.25;;;7.00;100.00
5872;BME280;2962;51.312;7.378;2022-12-20T06:27:49;97257.81;;;7.03;100.00
5872;BME280;2962;51.312;7.378;2022-12-20T06:30:15;97257.53;;;6.93;100.00
5872;BME280;2962;51.312;7.378;2022-12-20T06:32:40;97264.00;;;6.88;100.00
5872;BME280;2962;51.312;7.378;2022-12-20T06:35:06;97263.38;;;6.95;100.00
5872;BME280;2962;51.312;7.378;2022-12-20T06:37:31;97285.13;;;6.98;100.00
5872;BME280;2962;51.312;7.378;2022-12-20T06:39:57;97269.31;;;7.00;100.00
5872;BME280;2962;51.312;7.378;2022-12-20T06:42:23;97275.94;;;7.03;100.00
5872;BME280;2962;51.312;7.378;2022-12-20T06:44:48;97268.19;;;7.01;100.00
5872;BME280;2962;51.312;7.378;2022-12-20T06:47:14;97261.63;;;7.02;100.00
5872;BME280;2962;51.312;7.378;2022-12-20T06:49:39;97257.81;;;7.03;100.00
5872;BME280;2962;51.312;7.378;2022-12-20T06:52:04;97264.50;;;7.09;100.00
5872;BME280;2962;51.312;7.378;2022-12-20T06:54:29;97230.53;;;7.12;100.00
5872;BME280;2962;51.312;7.378;2022-12-20T06:56:55;97235.16;;;7.12;100.00
5872;BME280;2962;51.312;7.378;2022-12-20T06:59:20;97230.84;;;7.10;100.00
5872;BME280;2962;51.312;7.378;2022-12-20T07:01:45;97218.19;;;7.15;100.00
5872;BME280;2962;51.312;7.378;2022-12-20T07:04:10;97222.13;;;7.17;100.00
5872;BME280;2962;51.312;7.378;2022-12-20T07:06:36;97222.13;;;7.17;100.00
5872;BME280;2962;51.312;7.378;2022-12-20T07:09:01;97215.84;;;7.13;100.00
5872;BME280;2962;51.312;7.378;2022-12-20T07:11:27;97207.72;;;7.13;100.00
5872;BME280;2962;51.312;7.378;2022-12-20T07:13:55;97214.19;;;7.08;100.00
5872;BME280;2962;51.312;7.378;2022-12-20T07:16:22;97205.28;;;7.08;100.00
5872;BME280;2962;51.312;7.378;2022-12-20T07:18:51;97225.44;;;7.10;100.00
5872;BME280;2962;51.312;7.378;2022-12-20T07:21:18;97212.72;;;7.11;100.00
5872;BME280;2962;51.312;7.378;2022-12-20T07:23:44;97211.38;;;7.05;100.00
5872;BME280;2962;51.312;7.378;2022-12-20T07:26:09;97202.91;;;7.06;100.00
5872;BME280;2962;51.312;7.378;2022-12-20T07:28:35;97209.72;;;7.16;100.00
5872;BME280;2962;51.312;7.378;2022-12-20T07:31:01;97199.59;;;7.13;100.00
5872;BME280;2962;51.312;7.378;2022-12-20T07:33:28;97211.97;;;7.14;100.00
5872;BME280;2962;51.312;7.378;2022-12-20T07:36:03;97220.38;;;7.09;100.00
5872;BME280;2962;51.312;7.378;2022-12-20T07:38:29;97215.84;;;7.13;100.00
5872;BME280;2962;51.312;7.378;2022-12-20T07:40:54;97222.22;;;7.21;100.00
5872;BME280;2962;51.312;7.378;2022-12-20T07:43:20;97217.94;;;7.20;100.00
5872;BME280;2962;51.312;7.378;2022-12-20T07:45:45;97213.72;;;7.22;100.00
5872;BME280;2962;51.312;7.378;2022-12-20T07:48:11;97224.13;;;7.20;100.00
5872;BME280;2962;51.312;7.378;2022-12-20T07:50:36;97218.28;;;7.18;100.00
5872;BME280;2962;51.312;7.378;2022-12-20T07:53:04;97216.53;;;7.10;100.00
5872;BME280;2962;51.312;7.378;2022-12-20T07:55:30;97188.66;;;7.09;100.00
5872;BME280;2962;51.312;7.378;2022-12-20T07:58:01;97199.59;;;7.13;100.00
5872;BME280;2962;51.312;7.378;2022-12-20T08:00:27;97194.84;;;7.10;100.00
5872;BME280;2962;51.312;7.378;2022-12-20T08:02:58;97199.31;;;7.18;100.00
5872;BME280;2962;51.312;7.378;2022-12-20T08:05:25;97204.28;;;7.32;100.00
5872;BME280;2962;51.312;7.378;2022-12-20T08:07:51;97207.41;;;7.34;100.00
5872;BME280;2962;51.312;7.378;2022-12-20T08:10:18;97218.00;;;7.39;100.00
5872;BME280;2962;51.312;7.378;2022-12-20T08:12:45;97200.22;;;7.42;100.00
5872;BME280;2962;51.312;7.378;2022-12-20T08:15:12;97214.22;;;7.44;100.00
5872;BME280;2962;51.312;7.378;2022-12-20T08:17:37;97236.78;;;7.48;100.00
5872;BME280;2962;51.312;7.378;2022-12-20T08:20:03;97225.94;;;7.48;100.00
5872;BME280;2962;51.312;7.378;2022-12-20T08:22:30;97224.53;;;7.54;100.00
5872;BME280;2962;51.312;7.378;2022-12-20T08:24:55;97194.78;;;7.57;100.00
5872;BME280;2962;51.312;7.378;2022-12-20T08:27:20;97226.88;;;7.55;100.00
5872;BME280;2962;51.312;7.378;2022-12-20T08:29:46;97230.72;;;7.54;100.00
5872;BME280;2962;51.312;7.378;2022-12-20T08:32:11;97232.28;;;7.55;100.00
5872;BME280;2962;51.312;7.378;2022-12-20T08:34:38;97211.84;;;7.58;100.00
5872;BME280;2962;51.312;7.378;2022-12-20T08:37:03;97204.47;;;7.58;100.00
5872;BME280;2962;51.312;7.378;2022-12-20T08:39:29;97214.09;;;7.56;100.00
5872;BME280;2962;51.312;7.378;2022-12-20T08:41:54;97178.94;;;7.59;100.00
5872;BME280;2962;51.312;7.378;2022-12-20T08:44:19;97203.03;;;7.65;100.00
5872;BME280;2962;51.312;7.378;2022-12-20T08:46:45;97210.13;;;7.69;100.00
5872;BME280;2962;51.312;7.378;2022-12-20T08:49:10;97200.16;;;7.73;100.00
5872;BME280;2962;51.312;7.378;2022-12-20T08:51:35;97191.72;;;7.78;100.00
5872;BME280;2962;51.312;7.378;2022-12-20T08:54:01;97169.19;;;7.74;100.00
5872;BME280;2962;51.312;7.378;2022-12-20T08:56:27;97177.69;;;7.73;100.00
5872;BME280;2962;51.312;7.378;2022-12-20T08:58:52;97184.97;;;7.69;100.00
5872;BME280;2962;51.312;7.378;2022-12-20T09:01:19;97174.91;;;7.69;100.00
5872;BME280;2962;51.312;7.378;2022-12-20T09:03:46;97185.44;;;7.74;100.00
5872;BME280;2962;51.312;7.378;2022-12-20T09:06:15;97195.59;;;7.77;100.00
5872;BME280;2962;51.312;7.378;2022-12-20T09:08:41;97166.75;;;7.69;100.00
5872;BME280;2962;51.312;7.378;2022-12-20T09:11:25;97197.06;;;7.75;100.00
5872;BME280;2962;51.312;7.378;2022-12-20T09:13:53;97191.31;;;7.76;100.00
5872;BME280;2962;51.312;7.378;2022-12-20T09:16:21;97197.84;;;7.75;100.00
5872;BME280;2962;51.312;7.378;2022-12-20T09:18:51;97179.16;;;7.70;100.00
5872;BME280;2962;51.312;7.378;2022-12-20T09:21:17;97185.53;;;7.78;100.00
5872;BME280;2962;51.312;7.378;2022-12-20T09:23:43;97189.38;;;7.77;100.00
5872;BME280;2962;51.312;7.378;2022-12-20T09:26:13;97191.31;;;7.76;100.00
5872;BME280;2962;51.312;7.378;2022-12-20T09:28:39;97179.72;;;7.79;100.00
5872;BME280;2962;51.312;7.378;2022-12-20T09:31:06;97188.94;;;7.75;100.00
5872;BME280;2962;51.312;7.378;2022-12-20T09:33:33;97190.31;;;7.85;100.00
5872;BME280;2962;51.312;7.378;2022-12-20T09:35:59;97187.16;;;7.82;100.00
5872;BME280;2962;51.312;7.378;2022-12-20T09:38:25;97194.97;;;7.84;100.00
5872;BME280;2962;51.312;7.378;2022-12-20T09:40:57;97188.22;;;7.78;100.00
5872;BME280;2962;51.312;7.378;2022-12-20T09:43:24;97189.47;;;7.80;100.00
5872;BME280;2962;51.312;7.378;2022-12-20T09:45:52;97185.38;;;7.90;100.00
5872;BME280;2962;51.312;7.378;2022-12-20T09:48:23;97192.81;;;7.93;100.00
5872;BME280;2962;51.312;7.378;2022-12-20T09:56:24;97178.16;;;7.98;100.00
5872;BME280;2962;51.312;7.378;2022-12-20T10:01:32;97163.53;;;8.02;100.00
5872;BME280;2962;51.312;7.378;2022-12-20T10:04:02;97150.25;;;7.97;100.00
5872;BME280;2962;51.312;7.378;2022-12-20T10:06:39;97191.88;;;8.05;100.00
5872;BME280;2962;51.312;7.378;2022-12-20T10:09:28;97191.00;;;8.20;100.00
5872;BME280;2962;51.312;7.378;2022-12-20T10:12:27;97172.22;;;8.31;100.00
5872;BME280;2962;51.312;7.378;2022-12-20T10:15:16;97188.44;;;8.47;100.00
5872;BME280;2962;51.312;7.378;2022-12-20T10:20:29;97148.97;;;8.53;100.00
5872;BME280;2962;51.312;7.378;2022-12-20T10:23:08;97171.78;;;8.48;100.00
5872;BME280;2962;51.312;7.378;2022-12-20T10:25:38;97149.94;;;8.41;100.00
5872;BME280;2962;51.312;7.378;2022-12-20T10:28:11;97170.16;;;8.44;100.00
5872;BME280;2962;51.312;7.378;2022-12-20T10:30:37;97179.84;;;8.45;100.00
5872;BME280;2962;51.312;7.378;2022-12-20T10:33:02;97141.72;;;8.38;100.00
5872;BME280;2962;51.312;7.378;2022-12-20T10:35:38;97148.94;;;8.49;100.00
5872;BME280;2962;51.312;7.378;2022-12-20T10:38:06;97122.50;;;8.46;100.00
5872;BME280;2962;51.312;7.378;2022-12-20T10:40:36;97107.31;;;8.42;100.00
5872;BME280;2962;51.312;7.378;2022-12-20T10:43:04;97119.72;;;8.43;100.00
5872;BME280;2962;51.312;7.378;2022-12-20T10:45:36;97118.16;;;8.42;100.00
5872;BME280;2962;51.312;7.378;2022-12-20T10:48:24;97099.69;;;8.51;100.00
5872;BME280;2962;51.312;7.378;2022-12-20T10:51:00;97110.97;;;8.53;100.00
5872;BME280;2962;51.312;7.378;2022-12-20T10:53:26;97099.38;;;8.56;100.00
5872;BME280;2962;51.312;7.378;2022-12-20T10:55:53;97111.75;;;8.53;100.00
5872;BME280;2962;51.312;7.378;2022-12-20T10:58:33;97086.00;;;8.44;100.00
5872;BME280;2962;51.312;7.378;2022-12-20T11:01:04;97115.97;;;8.51;100.00
5872;BME280;2962;51.312;7.378;2022-12-20T11:03:30;97078.63;;;8.44;100.00
5872;BME280;2962;51.312;7.378;2022-12-20T11:05:57;97062.72;;;8.43;100.00
5872;BME280;2962;51.312;7.378;2022-12-20T11:08:24;97072.78;;;8.42;100.00
5872;BME280;2962;51.312;7.378;2022-12-20T11:11:09;97079.13;;;8.50;100.00
5872;BME280;2962;51.312;7.378;2022-12-20T11:13:36;97075.25;;;8.51;100.00
5872;BME280;2962;51.312;7.378;2022-12-20T11:16:01;97081.00;;;8.46;100.00
5872;BME280;2962;51.312;7.378;2022-12-20T11:23:40;97064.63;;;8.65;100.00
5872;BME280;2962;51.312;7.378;2022-12-20T11:31:53;97051.19;;;8.76;100.00
5872;BME280;2962;51.312;7.378;2022-12-20T11:34:38;97046.97;;;8.78;100.00
5872;BME280;2962;51.312;7.378;2022-12-20T11:37:20;97050.00;;;8.73;100.00
5872;BME280;2962;51.312;7.378;2022-12-20T11:42:39;97039.25;;;8.80;100.00
5872;BME280;2962;51.312;7.378;2022-12-20T11:45:14;97049.63;;;8.75;100.00
5872;BME280;2962;51.312;7.378;2022-12-20T11:50:39;97043.03;;;8.76;100.00
5872;BME280;2962;51.312;7.378;2022-12-20T11:56:39;97026.59;;;8.65;100.00
5872;BME280;2962;51.312;7.378;2022-12-20T12:05:06;97037.63;;;8.49;100.00
5872;BME280;2962;51.312;7.378;2022-12-20T12:07:33;97004.66;;;8.51;100.00
5872;BME280;2962;51.312;7.378;2022-12-20T12:10:15;97046.06;;;8.44;100.00
5872;BME280;2962;51.312;7.378;2022-12-20T12:12:43;97022.06;;;8.46;100.00
5872;BME280;2962;51.312;7.378;2022-12-20T12:18:18;97026.25;;;8.44;100.00
5872;BME280;2962;51.312;7.378;2022-12-20T12:20:54;97031.22;;;8.38;100.00
5872;BME280;2962;51.312;7.378;2022-12-20T12:25:52;97028.06;;;8.36;100.00
5872;BME280;2962;51.312;7.378;2022-12-20T12:28:19;97026.84;;;8.33;100.00
5872;BME280;2962;51.312;7.378;2022-12-20T12:30:52;97048.56;;;8.33;100.00
5872;BME280;2962;51.312;7.378;2022-12-20T12:33:23;97034.91;;;8.26;100.00
5872;BME280;2962;51.312;7.378;2022-12-20T12:39:00;97022.56;;;8.32;100.00
5872;BME280;2962;51.312;7.378;2022-12-20T12:46:43;97018.56;;;8.46;100.00
5872;BME280;2962;51.312;7.378;2022-12-20T12:49:15;97048.81;;;8.48;100.00
5872;BME280;2962;51.312;7.378;2022-12-20T12:51:49;97024.34;;;8.44;100.00
5872;BME280;2962;51.312;7.378;2022-12-20T12:54:20;97036.34;;;8.43;100.00
5872;BME280;2962;51.312;7.378;2022-12-20T12:56:50;97034.16;;;8.52;100.00
5872;BME280;2962;51.312;7.378;2022-12-20T13:17:59;97061.91;;;8.19;100.00
5872;BME280;2962;51.312;7.378;2022-12-20T13:20:32;97066.19;;;8.20;100.00
5872;BME280;2962;51.312;7.378;2022-12-20T13:25:33;97066.16;;;7.97;100.00
5872;BME280;2962;51.312;7.378;2022-12-20T13:33:42;97073.31;;;7.86;100.00
5872;BME280;2962;51.312;7.378;2022-12-20T13:49:43;97055.16;;;7.67;100.00
5872;BME280;2962;51.312;7.378;2022-12-20T13:54:49;97041.59;;;7.67;100.00
5872;BME280;2962;51.312;7.378;2022-12-20T13:59:50;97036.94;;;7.68;100.00
5872;BME280;2962;51.312;7.378;2022-12-20T14:02:32;97055.28;;;7.74;100.00
5872;BME280;2962;51.312;7.378;2022-12-20T14:05:05;97034.31;;;7.71;100.00
5872;BME280;2962;51.312;7.378;2022-12-20T14:07:34;97032.44;;;7.75;100.00
5872;BME280;2962;51.312;7.378;2022-12-20T14:10:03;97015.16;;;7.83;100.00
5872;BME280;2962;51.312;7.378;2022-12-20T14:12:43;97041.25;;;7.92;100.00
5872;BME280;2962;51.312;7.378;2022-12-20T14:15:33;97034.19;;;7.87;100.00
5872;BME280;2962;51.312;7.378;2022-12-20T14:18:15;97031.91;;;7.89;100.00
5872;BME280;2962;51.312;7.378;2022-12-20T14:20:41;97044.28;;;7.87;100.00
5872;BME280;2962;51.312;7.378;2022-12-20T14:23:14;97019.78;;;7.83;100.00
5872;BME280;2962;51.312;7.378;2022-12-20T14:25:43;97027.69;;;7.92;100.00
5872;BME280;2962;51.312;7.378;2022-12-20T14:28:44;97025.47;;;7.97;100.00
5872;BME280;2962;51.312;7.378;2022-12-20T14:31:26;97023.84;;;7.93;100.00
5872;BME280;2962;51.312;7.378;2022-12-20T14:34:04;97036.38;;;8.01;100.00
5872;BME280;2962;51.312;7.378;2022-12-20T14:36:30;97016.19;;;7.98;100.00
5872;BME280;2962;51.312;7.378;2022-12-20T14:38:56;97034.00;;;7.96;100.00
5872;BME280;2962;51.312;7.378;2022-12-20T14:44:23;97038.53;;;7.92;100.00
5872;BME280;2962;51.312;7.378;2022-12-20T14:46:51;97038.84;;;7.87;100.00
5872;BME280;2962;51.312;7.378;2022-12-20T14:49:31;97021.31;;;7.80;100.00
5872;BME280;2962;51.312;7.378;2022-12-20T14:52:34;97031.06;;;7.85;100.00
5872;BME280;2962;51.312;7.378;2022-12-20T14:55:10;97034.03;;;7.76;100.00
5872;BME280;2962;51.312;7.378;2022-12-20T14:57:49;97024.91;;;7.65;100.00
5872;BME280;2962;51.312;7.378;2022-12-20T15:00:20;97031.19;;;7.69;100.00
5872;BME280;2962;51.312;7.378;2022-12-20T15:08:27;97017.56;;;7.66;100.00
5872;BME280;2962;51.312;7.378;2022-12-20T15:13:40;97010.91;;;7.63;100.00
5872;BME280;2962;51.312;7.378;2022-12-20T15:16:18;96999.28;;;7.63;100.00
5872;BME280;2962;51.312;7.378;2022-12-20T15:18:49;97016.19;;;7.56;100.00
5872;BME280;2962;51.312;7.378;2022-12-20T15:21:15;97004.50;;;7.52;100.00
5872;BME280;2962;51.312;7.378;2022-12-20T15:23:50;97022.78;;;7.55;100.00
5872;BME280;2962;51.312;7.378;2022-12-20T15:26:19;97017.72;;;7.53;100.00
5872;BME280;2962;51.312;7.378;2022-12-20T15:28:44;97015.00;;;7.53;100.00
5872;BME280;2962;51.312;7.378;2022-12-20T15:31:15;97013.16;;;7.57;100.00
5872;BME280;2962;51.312;7.378;2022-12-20T15:33:42;97014.63;;;7.55;100.00